createdAt,value
2019-02-25T00:01:29.083Z,6.50
2019-02-25T00:03:58.376Z,6.40
2019-02-25T00:06:27.278Z,6.60
2019-02-25T00:08:56.086Z,6.60
2019-02-25T00:11:24.962Z,6.60
2019-02-25T00:13:53.770Z,6.50
2019-02-25T00:16:22.732Z,6.40
2019-02-25T00:18:51.651Z,6.30
2019-02-25T00:21:20.519Z,6.30
2019-02-25T00:23:49.374Z,6.30
2019-02-25T00:26:18.284Z,6.40
2019-02-25T00:28:47.119Z,6.50
2019-02-25T00:31:15.993Z,6.50
2019-02-25T00:33:44.802Z,6.50
2019-02-25T00:36:13.686Z,6.50
2019-02-25T00:38:42.517Z,6.40
2019-02-25T00:41:11.383Z,6.30
2019-02-25T00:43:40.187Z,6.30
2019-02-25T00:46:09.024Z,6.30
2019-02-25T00:48:37.863Z,6.40
2019-02-25T00:51:06.828Z,6.40
2019-02-25T00:53:35.768Z,6.40
2019-02-25T00:56:04.647Z,6.40
2019-02-25T00:58:33.560Z,6.40
2019-02-25T01:01:02.536Z,6.40
2019-02-25T01:03:31.427Z,6.40
2019-02-25T01:06:00.440Z,6.20
2019-02-25T01:08:29.338Z,6.10
2019-02-25T01:10:58.272Z,6.00
2019-02-25T01:13:27.179Z,6.00
2019-02-25T01:15:55.984Z,5.90
2019-02-25T01:18:24.937Z,5.90
2019-02-25T01:20:53.934Z,5.90
2019-02-25T01:23:22.823Z,6.00
2019-02-25T01:25:51.677Z,6.10
2019-02-25T01:28:20.642Z,6.10
2019-02-25T01:30:49.798Z,6.00
2019-02-25T01:33:18.630Z,6.00
2019-02-25T01:35:47.463Z,5.80
2019-02-25T01:38:16.573Z,5.70
2019-02-25T01:40:45.398Z,5.70
2019-02-25T01:43:14.225Z,5.80
2019-02-25T01:45:43.406Z,5.90
2019-02-25T01:48:12.708Z,5.90
2019-02-25T01:50:41.618Z,5.90
2019-02-25T01:53:10.546Z,5.80
2019-02-25T01:55:39.342Z,5.70
2019-02-25T01:58:08.143Z,5.60
2019-02-25T02:00:37.929Z,5.60
2019-02-25T02:03:06.878Z,5.60
2019-02-25T02:05:35.827Z,5.60
2019-02-25T02:08:04.727Z,5.50
2019-02-25T02:10:33.526Z,5.50
2019-02-25T02:13:03.144Z,5.60
2019-02-25T02:15:32.058Z,5.60
2019-02-25T02:18:00.875Z,5.80
2019-02-25T02:20:29.735Z,5.90
2019-02-25T02:22:58.586Z,5.90
2019-02-25T02:25:27.468Z,5.90
2019-02-25T02:27:56.316Z,5.80
2019-02-25T02:30:25.212Z,5.70
2019-02-25T02:32:54.061Z,5.70
2019-02-25T02:35:23.228Z,5.60
2019-02-25T02:37:52.078Z,5.60
2019-02-25T02:40:20.973Z,5.60
2019-02-25T02:42:52.226Z,5.60
2019-02-25T02:45:28.021Z,5.60
2019-02-25T02:48:12.001Z,5.50
2019-02-25T02:50:40.932Z,5.50
2019-02-25T02:53:09.739Z,5.60
2019-02-25T02:55:38.576Z,5.50
2019-02-25T02:58:07.738Z,5.60
2019-02-25T03:00:36.626Z,5.60
2019-02-25T03:03:05.613Z,5.50
2019-02-25T03:05:34.635Z,5.50
2019-02-25T03:08:03.606Z,5.60
2019-02-25T03:10:32.977Z,5.50
2019-02-25T03:13:01.791Z,5.60
2019-02-25T03:15:31.040Z,5.60
2019-02-25T03:17:59.880Z,5.60
2019-02-25T03:20:28.844Z,5.70
2019-02-25T03:22:58.226Z,5.70
2019-02-25T03:25:27.050Z,5.70
2019-02-25T03:27:55.840Z,5.60
2019-02-25T03:30:24.774Z,5.60
2019-02-25T03:32:53.838Z,5.50
2019-02-25T03:35:23.159Z,5.50
2019-02-25T03:37:52.050Z,5.40
2019-02-25T03:40:21.249Z,5.40
2019-02-25T03:42:50.348Z,5.40
2019-02-25T03:45:19.632Z,5.30
2019-02-25T03:47:49.396Z,5.20
2019-02-25T03:50:18.356Z,5.20
2019-02-25T03:52:47.358Z,5.20
2019-02-25T03:55:17.359Z,5.20
2019-02-25T03:57:46.340Z,5.10
2019-02-25T04:00:17.647Z,5.00
2019-02-25T04:02:46.660Z,4.90
2019-02-25T04:05:15.600Z,4.90
2019-02-25T04:07:44.758Z,4.90
2019-02-25T04:10:14.047Z,4.90
2019-02-25T04:12:42.960Z,4.90
2019-02-25T04:15:14.394Z,4.90
2019-02-25T04:17:43.307Z,5.00
2019-02-25T04:20:13.659Z,4.90
2019-02-25T04:22:42.584Z,4.90
2019-02-25T04:25:11.587Z,4.80
2019-02-25T04:27:40.447Z,4.80
2019-02-25T04:30:12.030Z,4.80
2019-02-25T04:32:40.876Z,4.70
2019-02-25T04:35:10.182Z,4.70
2019-02-25T04:37:39.444Z,4.70
2019-02-25T04:40:10.115Z,4.70
2019-02-25T04:42:39.012Z,4.70
2019-02-25T04:45:11.171Z,4.70
2019-02-25T04:47:40.481Z,4.70
2019-02-25T04:50:10.470Z,4.70
2019-02-25T04:52:39.302Z,4.70
2019-02-25T04:55:08.846Z,4.80
2019-02-25T04:57:37.739Z,4.70
2019-02-25T05:00:09.546Z,4.70
2019-02-25T05:02:38.740Z,4.60
2019-02-25T05:05:07.946Z,4.60
2019-02-25T05:07:36.863Z,4.60
2019-02-25T05:10:25.003Z,4.60
2019-02-25T05:12:59.280Z,4.60
2019-02-25T05:15:28.459Z,4.60
2019-02-25T05:17:57.269Z,4.80
2019-02-25T05:20:26.143Z,4.90
2019-02-25T05:22:55.163Z,4.90
2019-02-25T05:25:24.060Z,5.00
2019-02-25T05:27:53.184Z,5.10
2019-02-25T05:30:22.106Z,5.10
2019-02-25T05:32:51.253Z,5.10
2019-02-25T05:35:20.129Z,5.20
2019-02-25T05:37:49.878Z,5.20
2019-02-25T05:40:18.854Z,5.10
2019-02-25T05:42:48.374Z,5.00
2019-02-25T05:45:17.560Z,4.90
2019-02-25T05:47:46.735Z,4.90
2019-02-25T05:50:16.111Z,4.90
2019-02-25T05:52:45.042Z,4.80
2019-02-25T05:55:14.277Z,4.80
2019-02-25T05:57:43.362Z,4.80
2019-02-25T06:00:16.642Z,4.80
2019-02-25T06:02:45.571Z,4.80
2019-02-25T06:05:14.550Z,4.80
2019-02-25T06:07:43.444Z,4.80
2019-02-25T06:10:12.721Z,4.90
2019-02-25T06:12:41.660Z,4.90
2019-02-25T06:15:11.698Z,4.90
2019-02-25T06:17:40.535Z,4.80
2019-02-25T06:20:10.259Z,4.80
2019-02-25T06:22:39.796Z,4.90
2019-02-25T06:25:09.034Z,4.80
2019-02-25T06:27:38.449Z,4.90
2019-02-25T06:30:09.200Z,4.90
2019-02-25T06:32:38.895Z,5.00
2019-02-25T06:35:07.967Z,5.00
2019-02-25T06:37:37.112Z,5.00
2019-02-25T06:40:06.651Z,5.00
2019-02-25T06:42:35.438Z,5.00
2019-02-25T06:45:05.242Z,5.10
2019-02-25T06:47:34.035Z,5.10
2019-02-25T06:50:03.077Z,5.00
2019-02-25T06:52:31.933Z,5.00
2019-02-25T06:55:00.844Z,5.00
2019-02-25T06:57:29.663Z,5.00
2019-02-25T06:59:59.071Z,5.00
2019-02-25T07:02:28.018Z,5.10
2019-02-25T07:05:18.997Z,5.10
2019-02-25T07:07:53.414Z,5.20
2019-02-25T07:10:45.094Z,5.20
2019-02-25T07:13:18.694Z,5.20
2019-02-25T07:16:05.660Z,5.30
2019-02-25T07:18:56.528Z,5.40
2019-02-25T07:21:33.275Z,5.50
2019-02-25T07:24:27.295Z,5.60
2019-02-25T07:27:03.220Z,5.60
2019-02-25T07:29:50.270Z,5.70
2019-02-25T07:32:26.509Z,5.80
2019-02-25T07:35:09.590Z,5.90
2019-02-25T07:37:48.220Z,5.90
2019-02-25T07:40:48.328Z,5.90
2019-02-25T07:43:47.333Z,6.00
2019-02-25T07:46:25.064Z,6.00
2019-02-25T07:49:17.657Z,6.20
2019-02-25T07:51:57.987Z,6.10
2019-02-25T07:54:45.006Z,6.20
2019-02-25T07:57:41.865Z,6.30
2019-02-25T08:00:26.505Z,6.40
2019-02-25T08:03:20.671Z,6.50
2019-02-25T08:06:08.285Z,6.80
2019-02-25T08:08:56.164Z,7.00
2019-02-25T08:14:28.203Z,7.00
2019-02-25T08:17:04.633Z,7.10
2019-02-25T08:19:41.317Z,7.30
2019-02-25T08:22:32.519Z,7.40
2019-02-25T08:25:11.297Z,7.40
2019-02-25T08:27:58.345Z,7.50
2019-02-25T08:30:34.755Z,7.60
2019-02-25T08:33:15.751Z,7.80
2019-02-25T08:36:37.617Z,7.90
2019-02-25T08:39:16.102Z,7.90
2019-02-25T08:41:55.753Z,8.00
2019-02-25T08:44:43.722Z,7.90
2019-02-25T08:47:20.506Z,7.90
2019-02-25T08:49:58.728Z,8.10
2019-02-25T08:52:27.743Z,8.20
2019-02-25T08:54:56.550Z,8.30
2019-02-25T08:57:25.599Z,8.40
2019-02-25T08:59:54.603Z,8.50
2019-02-25T09:02:23.559Z,8.60
2019-02-25T09:04:53.012Z,8.70
2019-02-25T09:07:22.955Z,8.80
2019-02-25T09:09:51.841Z,9.00
2019-02-25T09:12:20.923Z,9.00
2019-02-25T09:14:49.784Z,9.10
2019-02-25T09:17:18.603Z,9.30
2019-02-25T09:19:47.491Z,9.30
2019-02-25T09:22:16.611Z,9.40
2019-02-25T09:24:45.426Z,9.40
2019-02-25T09:27:14.691Z,9.60
2019-02-25T09:29:44.989Z,9.70
2019-02-25T09:32:13.942Z,9.80
2019-02-25T09:34:42.777Z,10.00
2019-02-25T09:37:13.190Z,10.10
2019-02-25T09:39:42.072Z,10.20
2019-02-25T09:42:10.985Z,10.30
2019-02-25T09:44:40.015Z,10.40
2019-02-25T09:47:08.908Z,10.40
2019-02-25T09:49:37.753Z,10.60
2019-02-25T09:52:06.595Z,10.70
2019-02-25T09:54:35.416Z,10.80
2019-02-25T09:57:05.223Z,10.90
2019-02-25T09:59:34.037Z,11.00
2019-02-25T10:02:02.933Z,11.00
2019-02-25T10:04:31.775Z,11.00
2019-02-25T10:07:02.491Z,11.00
2019-02-25T10:09:32.502Z,11.20
2019-02-25T10:12:01.526Z,11.20
2019-02-25T10:14:30.650Z,11.30
2019-02-25T10:16:59.467Z,11.30
2019-02-25T10:19:28.294Z,11.40
2019-02-25T10:21:57.110Z,11.50
2019-02-25T10:24:25.970Z,11.70
2019-02-25T10:26:54.893Z,11.70
2019-02-25T10:29:24.556Z,11.90
2019-02-25T10:31:53.380Z,12.00
2019-02-25T10:34:23.943Z,12.10
2019-02-25T10:36:53.070Z,12.00
2019-02-25T10:39:21.952Z,12.00
2019-02-25T10:41:52.851Z,12.20
2019-02-25T10:44:21.360Z,12.30
2019-02-25T10:46:50.302Z,12.40
2019-02-25T10:49:20.468Z,12.70
2019-02-25T10:51:50.879Z,12.50
2019-02-25T10:54:21.290Z,12.70
2019-02-25T10:57:03.052Z,13.00
2019-02-25T10:59:34.177Z,13.10
2019-02-25T11:02:02.475Z,13.10
2019-02-25T11:04:31.327Z,13.20
2019-02-25T11:07:02.989Z,13.30
2019-02-25T11:09:50.370Z,13.50
2019-02-25T11:12:21.469Z,13.40
2019-02-25T11:14:50.650Z,13.40
2019-02-25T11:17:22.413Z,13.40
2019-02-25T11:19:51.514Z,13.60
2019-02-25T11:22:20.355Z,13.90
2019-02-25T11:24:53.334Z,13.90
2019-02-25T11:27:22.326Z,13.90
2019-02-25T11:29:51.566Z,14.10
2019-02-25T11:32:21.619Z,14.20
2019-02-25T11:34:51.296Z,14.10
2019-02-25T11:37:22.463Z,14.30
2019-02-25T11:39:52.592Z,14.60
2019-02-25T11:42:22.359Z,14.60
2019-02-25T11:44:52.029Z,14.50
2019-02-25T11:47:22.170Z,14.50
2019-02-25T11:49:51.603Z,14.60
2019-02-25T11:52:20.439Z,14.60
2019-02-25T11:54:49.282Z,14.80
2019-02-25T11:57:18.099Z,14.80
2019-02-25T11:59:47.251Z,14.80
2019-02-25T12:02:24.930Z,14.80
2019-02-25T12:04:48.461Z,15.00
2019-02-25T12:07:17.741Z,15.00
2019-02-25T12:09:49.691Z,15.10
2019-02-25T12:12:18.900Z,15.20
2019-02-25T12:14:47.797Z,15.30
2019-02-25T12:17:16.731Z,15.30
2019-02-25T12:19:48.027Z,15.20
2019-02-25T12:22:16.859Z,15.30
2019-02-25T12:24:45.711Z,15.30
2019-02-25T12:27:15.362Z,15.50
2019-02-25T12:29:44.611Z,15.40
2019-02-25T12:32:15.235Z,15.40
2019-02-25T12:34:44.133Z,15.60
2019-02-25T12:37:13.102Z,15.60
2019-02-25T12:39:42.178Z,15.50
2019-02-25T12:42:11.059Z,15.50
2019-02-25T12:44:42.664Z,15.70
2019-02-25T12:47:11.511Z,15.80
2019-02-25T12:49:40.422Z,15.90
2019-02-25T12:52:09.454Z,15.80
2019-02-25T12:54:38.690Z,15.80
2019-02-25T12:57:07.549Z,15.80
2019-02-25T12:59:41.284Z,15.90
2019-02-25T13:02:10.197Z,16.00
2019-02-25T13:04:39.037Z,16.00
2019-02-25T13:07:07.854Z,16.00
2019-02-25T13:09:36.690Z,16.10
2019-02-25T13:12:05.597Z,16.30
2019-02-25T13:14:34.480Z,16.30
2019-02-25T13:17:04.164Z,16.40
2019-02-25T13:19:33.615Z,16.50
2019-02-25T13:22:02.538Z,16.50
2019-02-25T13:24:32.737Z,16.50
2019-02-25T13:27:03.218Z,16.50
2019-02-25T13:29:33.047Z,16.70
2019-02-25T13:32:01.957Z,16.70
2019-02-25T13:34:30.843Z,16.90
2019-02-25T13:36:59.827Z,16.90
2019-02-25T13:39:29.033Z,17.00
2019-02-25T13:42:01.887Z,17.00
2019-02-25T13:44:30.708Z,17.00
2019-02-25T13:46:59.867Z,17.10
2019-02-25T13:49:28.804Z,17.20
2019-02-25T13:51:57.880Z,17.20
2019-02-25T13:54:26.915Z,17.30
2019-02-25T13:56:57.614Z,17.20
2019-02-25T13:59:26.608Z,17.30
2019-02-25T14:01:55.501Z,17.20
2019-02-25T14:04:24.415Z,17.30
2019-02-25T14:06:53.400Z,17.30
2019-02-25T14:09:22.333Z,17.20
2019-02-25T14:11:51.864Z,17.20
2019-02-25T14:14:21.034Z,17.20
2019-02-25T14:16:50.015Z,17.20
2019-02-25T14:19:19.065Z,17.20
2019-02-25T14:21:48.006Z,17.20
2019-02-25T14:24:18.508Z,17.20
2019-02-25T14:26:47.558Z,17.30
2019-02-25T14:29:16.407Z,17.20
2019-02-25T14:31:45.510Z,17.30
2019-02-25T14:34:14.448Z,17.20
2019-02-25T14:36:43.275Z,17.20
2019-02-25T14:39:30.278Z,17.20
2019-02-25T14:42:01.261Z,17.30
2019-02-25T14:44:32.348Z,17.20
2019-02-25T14:47:02.633Z,17.20
2019-02-25T14:49:39.842Z,17.20
2019-02-25T14:52:08.820Z,17.10
2019-02-25T14:54:37.810Z,17.10
2019-02-25T14:57:06.703Z,17.20
2019-02-25T14:59:35.610Z,17.10
2019-02-25T15:02:05.975Z,17.10
2019-02-25T15:04:35.856Z,17.10
2019-02-25T15:07:06.909Z,17.20
2019-02-25T15:09:37.121Z,17.20
2019-02-25T15:12:09.250Z,17.20
2019-02-25T15:14:37.563Z,17.10
2019-02-25T15:17:08.337Z,17.10
2019-02-25T15:19:38.645Z,17.10
2019-02-25T15:22:08.889Z,17.10
2019-02-25T15:24:37.701Z,17.10
2019-02-25T15:27:08.858Z,17.10
2019-02-25T15:29:39.533Z,17.00
2019-02-25T15:32:08.258Z,17.00
2019-02-25T15:34:37.684Z,17.10
2019-02-25T15:37:07.171Z,17.00
2019-02-25T15:39:37.299Z,17.10
2019-02-25T15:42:08.110Z,17.00
2019-02-25T15:44:37.535Z,17.00
2019-02-25T15:47:08.601Z,17.10
2019-02-25T15:49:38.050Z,17.00
2019-02-25T15:52:07.055Z,17.00
2019-02-25T15:54:37.252Z,17.00
2019-02-25T15:57:06.665Z,17.00
2019-02-25T15:59:35.663Z,17.00
2019-02-25T16:02:05.639Z,16.80
2019-02-25T16:04:40.218Z,16.80
2019-02-25T16:07:11.223Z,16.90
2019-02-25T16:09:40.192Z,16.80
2019-02-25T16:12:09.656Z,16.70
2019-02-25T16:14:39.028Z,16.60
2019-02-25T16:17:08.256Z,16.50
2019-02-25T16:19:43.792Z,16.50
2019-02-25T16:22:09.219Z,16.40
2019-02-25T16:24:38.642Z,16.50
2019-02-25T16:27:07.592Z,16.60
2019-02-25T16:29:36.514Z,16.70
2019-02-25T16:32:05.481Z,16.60
2019-02-25T16:34:35.802Z,16.60
2019-02-25T16:37:04.995Z,16.40
2019-02-25T16:39:33.843Z,16.30
2019-02-25T16:42:02.660Z,16.10
2019-02-25T16:44:31.720Z,16.20
2019-02-25T16:47:00.741Z,16.10
2019-02-25T16:49:31.550Z,16.00
2019-02-25T16:52:02.088Z,15.90
2019-02-25T16:54:31.546Z,15.80
2019-02-25T16:57:00.501Z,15.60
2019-02-25T16:59:29.390Z,15.50
2019-02-25T17:01:59.910Z,15.30
2019-02-25T17:04:31.677Z,15.10
2019-02-25T17:07:00.108Z,14.90
2019-02-25T17:09:31.797Z,14.80
2019-02-25T17:12:02.878Z,14.70
2019-02-25T17:14:31.615Z,14.50
2019-02-25T17:17:00.864Z,14.30
2019-02-25T17:19:29.814Z,14.20
2019-02-25T17:21:58.692Z,14.10
2019-02-25T17:24:28.190Z,14.00
2019-02-25T17:27:00.031Z,14.00
2019-02-25T17:29:31.214Z,13.90
2019-02-25T17:32:01.874Z,13.70
2019-02-25T17:34:32.172Z,13.70
2019-02-25T17:37:01.412Z,13.60
2019-02-25T17:39:31.186Z,13.40
2019-02-25T17:42:03.074Z,13.20
2019-02-25T17:44:32.115Z,13.10
2019-02-25T17:47:04.427Z,13.10
2019-02-25T17:49:33.676Z,13.00
2019-02-25T17:52:03.850Z,13.00
2019-02-25T17:54:33.434Z,12.90
2019-02-25T17:57:05.237Z,12.80
2019-02-25T17:59:34.199Z,12.70
2019-02-25T18:02:04.533Z,12.60
2019-02-25T18:04:34.691Z,12.50
2019-02-25T18:07:04.185Z,12.50
2019-02-25T18:09:33.319Z,12.40
2019-02-25T18:12:04.387Z,12.30
2019-02-25T18:14:33.559Z,12.20
2019-02-25T18:17:03.378Z,12.20
2019-02-25T18:19:33.135Z,12.10
2019-02-25T18:22:02.214Z,12.10
2019-02-25T18:24:32.485Z,11.90
2019-02-25T18:27:01.576Z,11.80
2019-02-25T18:29:30.773Z,11.70
2019-02-25T18:32:01.659Z,11.70
2019-02-25T18:34:32.143Z,11.70
2019-02-25T18:37:01.240Z,11.60
2019-02-25T18:39:31.632Z,11.50
2019-02-25T18:42:00.936Z,11.40
2019-02-25T18:44:29.844Z,11.40
2019-02-25T18:46:59.892Z,11.30
2019-02-25T18:49:30.305Z,11.20
2019-02-25T18:51:59.991Z,11.20
2019-02-25T18:54:29.185Z,11.20
2019-02-25T18:56:59.013Z,11.10
2019-02-25T18:59:29.544Z,11.00
2019-02-25T19:01:58.634Z,10.90
2019-02-25T19:04:27.782Z,11.00
2019-02-25T19:06:56.821Z,10.90
2019-02-25T19:09:27.371Z,10.90
2019-02-25T19:11:57.888Z,10.80
2019-02-25T19:14:28.318Z,10.90
2019-02-25T19:16:58.142Z,10.70
2019-02-25T19:19:28.486Z,10.60
2019-02-25T19:21:58.329Z,10.70
2019-02-25T19:24:27.363Z,10.60
2019-02-25T19:26:56.311Z,10.40
2019-02-25T19:29:26.053Z,10.40
2019-02-25T19:31:58.826Z,10.30
2019-02-25T19:34:27.029Z,10.20
2019-02-25T19:37:00.282Z,10.30
2019-02-25T19:39:27.000Z,10.20
2019-02-25T19:41:56.800Z,10.30
2019-02-25T19:44:27.830Z,10.30
2019-02-25T19:46:57.404Z,10.20
2019-02-25T19:49:26.393Z,10.10
2019-02-25T19:51:55.516Z,9.90
2019-02-25T19:54:24.435Z,9.80
2019-02-25T19:56:55.481Z,9.90
2019-02-25T19:59:26.290Z,9.70
2019-02-25T20:01:55.091Z,9.70
2019-02-25T20:04:24.126Z,9.60
2019-02-25T20:06:53.721Z,9.60
2019-02-25T20:09:24.814Z,9.50
2019-02-25T20:11:53.727Z,9.50
2019-02-25T20:14:22.619Z,9.40
2019-02-25T20:16:51.663Z,9.30
2019-02-25T20:19:20.795Z,9.30
2019-02-25T20:21:50.870Z,9.20
2019-02-25T20:24:21.623Z,9.20
2019-02-25T20:26:53.994Z,9.20
2019-02-25T20:29:21.782Z,9.20
2019-02-25T20:31:52.233Z,9.20
2019-02-25T20:34:22.928Z,9.20
2019-02-25T20:36:55.029Z,9.20
2019-02-25T20:39:23.380Z,9.10
2019-02-25T20:41:52.700Z,9.10
2019-02-25T20:44:24.026Z,9.00
2019-02-25T20:46:54.889Z,8.90
2019-02-25T20:49:26.403Z,8.80
2019-02-25T20:51:56.524Z,8.80
2019-02-25T20:54:25.515Z,8.80
2019-02-25T20:56:55.495Z,8.80
2019-02-25T20:59:28.068Z,8.80
2019-02-25T21:01:57.701Z,8.60
2019-02-25T21:04:27.678Z,8.50
2019-02-25T21:06:56.798Z,8.50
2019-02-25T21:09:25.959Z,8.40
2019-02-25T21:11:55.033Z,8.40
2019-02-25T21:14:24.023Z,8.30
2019-02-25T21:16:54.339Z,8.30
2019-02-25T21:19:23.492Z,8.20
2019-02-25T21:21:55.003Z,8.20
2019-02-25T21:24:22.999Z,8.20
2019-02-25T21:26:55.181Z,8.20
2019-02-25T21:29:25.066Z,8.10
2019-02-25T21:31:54.241Z,8.10
2019-02-25T21:34:24.426Z,8.10
2019-02-25T21:36:56.179Z,8.10
2019-02-25T21:39:25.023Z,8.00
2019-02-25T21:41:53.820Z,8.00
2019-02-25T21:44:24.180Z,8.00
2019-02-25T21:46:54.039Z,8.10
2019-02-25T21:49:26.855Z,8.00
2019-02-25T21:51:54.074Z,7.90
2019-02-25T21:54:22.940Z,7.90
2019-02-25T21:56:51.757Z,7.90
2019-02-25T21:59:20.570Z,7.80
2019-02-25T22:01:49.431Z,7.70
2019-02-25T22:04:20.230Z,7.70
2019-02-25T22:06:51.039Z,7.70
2019-02-25T22:09:35.322Z,7.70
2019-02-25T22:11:50.323Z,7.60
2019-02-25T22:14:20.956Z,7.60
2019-02-25T22:16:51.960Z,7.60
2019-02-25T22:19:20.941Z,7.60
2019-02-25T22:21:53.530Z,7.60
2019-02-25T22:24:24.748Z,7.60
2019-02-25T22:26:51.581Z,7.70
2019-02-25T22:29:21.466Z,7.80
2019-02-25T22:31:50.260Z,7.80
2019-02-25T22:34:20.638Z,7.70
2019-02-25T22:36:51.436Z,7.60
2019-02-25T22:39:21.298Z,7.50
2019-02-25T22:41:50.949Z,7.50
2019-02-25T22:44:19.846Z,7.50
2019-02-25T22:46:48.685Z,7.70
2019-02-25T22:49:17.523Z,7.70
2019-02-25T22:51:46.355Z,7.60
2019-02-25T22:54:17.047Z,7.50
2019-02-25T22:56:45.704Z,7.40
2019-02-25T22:59:14.502Z,7.40
2019-02-25T23:01:43.423Z,7.40
2019-02-25T23:04:14.872Z,7.50
2019-02-25T23:06:44.544Z,7.60
2019-02-25T23:09:14.767Z,7.70
2019-02-25T23:11:46.022Z,7.70
2019-02-25T23:14:16.336Z,7.60
2019-02-25T23:16:47.850Z,7.40
2019-02-25T23:19:18.063Z,7.30
2019-02-25T23:21:47.087Z,7.30
2019-02-25T23:24:15.912Z,7.30
2019-02-25T23:26:44.726Z,7.30
2019-02-25T23:29:15.069Z,7.20
2019-02-25T23:31:46.463Z,7.10
2019-02-25T23:34:15.361Z,7.00
2019-02-25T23:36:47.120Z,7.00
2019-02-25T23:39:17.650Z,7.00
2019-02-25T23:41:48.706Z,7.00
2019-02-25T23:44:19.740Z,6.90
2019-02-25T23:46:48.188Z,6.90
2019-02-25T23:49:17.072Z,6.90
2019-02-25T23:51:48.066Z,6.80
2019-02-25T23:54:18.474Z,6.60
2019-02-25T23:56:49.712Z,6.60
2019-02-25T23:59:21.489Z,6.50
